createdAt,value
2022-09-12T00:01:06.983Z,50.39
2022-09-12T00:03:33.413Z,51.33
2022-09-12T00:06:08.018Z,51.84
2022-09-12T00:08:34.595Z,51.72
2022-09-12T00:11:01.644Z,50.74
2022-09-12T00:13:28.570Z,50.06
2022-09-12T00:16:02.348Z,50.22
2022-09-12T00:18:29.129Z,50.43
2022-09-12T00:20:57.774Z,50.62
2022-09-12T00:23:24.587Z,50.95
2022-09-12T00:26:01.280Z,50.66
2022-09-12T00:28:28.086Z,51.50
2022-09-12T00:31:02.133Z,52.04
2022-09-12T00:33:28.716Z,52.40
2022-09-12T00:35:56.039Z,51.85
2022-09-12T00:38:22.828Z,51.78
2022-09-12T00:40:49.571Z,52.39
2022-09-12T00:43:16.276Z,52.92
2022-09-12T00:45:42.831Z,53.05
2022-09-12T00:48:10.064Z,52.85
2022-09-12T00:50:36.973Z,52.26
2022-09-12T00:53:03.541Z,51.60
2022-09-12T00:55:30.460Z,52.04
2022-09-12T00:57:58.142Z,53.38
2022-09-12T01:00:24.785Z,53.92
2022-09-12T01:02:54.449Z,53.72
2022-09-12T01:05:28.546Z,54.46
2022-09-12T01:07:55.326Z,53.76
2022-09-12T01:10:22.683Z,53.25
2022-09-12T01:12:49.262Z,53.81
2022-09-12T01:15:15.951Z,53.38
2022-09-12T01:17:42.495Z,52.51
2022-09-12T01:20:09.298Z,52.30
2022-09-12T01:22:36.279Z,52.74
2022-09-12T01:25:02.702Z,52.60
2022-09-12T01:27:29.972Z,53.66
2022-09-12T01:29:56.762Z,54.53
2022-09-12T01:32:24.275Z,55.44
2022-09-12T01:34:51.316Z,55.18
2022-09-12T01:37:17.777Z,52.65
2022-09-12T01:39:46.730Z,52.61
2022-09-12T01:42:13.933Z,53.17
2022-09-12T01:44:40.729Z,54.20
2022-09-12T01:47:07.568Z,54.97
2022-09-12T01:49:38.951Z,53.71
2022-09-12T01:52:05.401Z,52.24
2022-09-12T01:54:34.742Z,50.90
2022-09-12T01:57:01.381Z,50.74
2022-09-12T01:59:29.045Z,52.09
2022-09-12T02:01:56.624Z,52.53
2022-09-12T02:04:23.799Z,53.54
2022-09-12T02:06:51.048Z,53.64
2022-09-12T02:09:17.812Z,53.52
2022-09-12T02:11:45.643Z,53.25
2022-09-12T02:14:12.418Z,54.37
2022-09-12T02:16:39.932Z,54.83
2022-09-12T02:19:08.726Z,54.64
2022-09-12T02:21:36.056Z,55.35
2022-09-12T02:24:02.887Z,54.65
2022-09-12T02:26:31.801Z,53.72
2022-09-12T02:28:59.135Z,54.68
2022-09-12T02:34:06.048Z,55.45
2022-09-12T02:36:33.682Z,55.66
2022-09-12T02:39:00.496Z,56.08
2022-09-12T02:41:27.981Z,56.39
2022-09-12T02:43:54.659Z,56.95
2022-09-12T02:46:21.168Z,56.43
2022-09-12T02:48:50.713Z,55.90
2022-09-12T02:51:21.498Z,53.09
2022-09-12T02:53:51.011Z,53.91
2022-09-12T02:56:18.021Z,53.11
2022-09-12T02:58:45.408Z,53.50
2022-09-12T03:01:12.316Z,53.57
2022-09-12T03:03:43.355Z,53.81
2022-09-12T03:06:10.461Z,53.55
2022-09-12T03:08:36.897Z,53.17
2022-09-12T03:11:03.354Z,52.42
2022-09-12T03:13:30.392Z,51.43
2022-09-12T03:15:57.236Z,50.52
2022-09-12T03:18:25.069Z,50.57
2022-09-12T03:20:52.715Z,51.83
2022-09-12T03:23:19.727Z,52.87
2022-09-12T03:25:47.115Z,51.97
2022-09-12T03:28:13.969Z,51.88
2022-09-12T03:30:40.960Z,51.14
2022-09-12T03:33:07.976Z,52.00
2022-09-12T03:35:38.260Z,52.53
2022-09-12T03:38:04.739Z,52.60
2022-09-12T03:40:32.231Z,52.63
2022-09-12T03:42:58.862Z,53.45
2022-09-12T03:45:26.162Z,51.59
2022-09-12T03:47:53.042Z,50.59
2022-09-12T03:50:19.666Z,50.60
2022-09-12T03:52:53.823Z,51.59
2022-09-12T03:55:20.462Z,52.78
2022-09-12T03:57:47.274Z,52.89
2022-09-12T04:00:19.546Z,53.11
2022-09-12T04:02:46.656Z,53.01
2022-09-12T04:05:13.452Z,53.07
2022-09-12T04:07:40.419Z,54.70
2022-09-12T04:10:09.743Z,55.14
2022-09-12T04:12:36.637Z,52.89
2022-09-12T04:15:10.875Z,53.00
2022-09-12T04:17:44.976Z,53.23
2022-09-12T04:20:11.637Z,53.31
2022-09-12T04:22:38.451Z,54.42
2022-09-12T04:25:05.275Z,55.15
2022-09-12T04:27:31.750Z,56.68
2022-09-12T04:29:58.838Z,56.64
2022-09-12T04:32:25.889Z,57.23
2022-09-12T04:34:53.974Z,56.16
2022-09-12T04:37:22.984Z,56.29
2022-09-12T04:39:50.945Z,57.10
2022-09-12T04:42:17.720Z,59.00
2022-09-12T04:44:44.346Z,57.99
2022-09-12T04:47:11.249Z,57.49
2022-09-12T04:52:41.973Z,59.43
2022-09-12T04:55:08.545Z,59.65
2022-09-12T04:57:40.019Z,59.42
2022-09-12T05:00:07.301Z,59.58
2022-09-12T05:02:34.613Z,59.78
2022-09-12T05:05:02.039Z,59.41
2022-09-12T05:07:35.875Z,60.67
2022-09-12T05:10:07.133Z,60.63
2022-09-12T05:12:35.736Z,61.59
2022-09-12T05:15:02.586Z,60.55
2022-09-12T05:17:29.603Z,60.81
2022-09-12T05:19:56.482Z,60.54
2022-09-12T05:22:30.548Z,60.00
2022-09-12T05:24:57.437Z,60.17
2022-09-12T05:27:24.844Z,59.15
2022-09-12T05:29:51.550Z,58.81
2022-09-12T05:32:18.121Z,58.33
2022-09-12T05:34:45.957Z,57.75
2022-09-12T05:37:16.707Z,56.82
2022-09-12T05:39:45.786Z,56.95
2022-09-12T05:42:12.771Z,56.00
2022-09-12T05:44:39.442Z,56.63
2022-09-12T05:47:05.959Z,56.51
2022-09-12T05:49:34.277Z,54.66
2022-09-12T05:52:01.100Z,54.78
2022-09-12T05:54:31.698Z,54.70
2022-09-12T05:57:00.824Z,55.15
2022-09-12T05:59:27.551Z,55.71
2022-09-12T06:01:55.556Z,55.62
2022-09-12T06:04:22.298Z,55.86
2022-09-12T06:06:49.392Z,55.61
2022-09-12T06:09:16.348Z,55.54
2022-09-12T06:11:43.742Z,54.78
2022-09-12T06:14:10.739Z,54.07
2022-09-12T06:16:38.546Z,54.74
2022-09-12T06:19:05.772Z,54.21
2022-09-12T06:21:33.221Z,53.58
2022-09-12T06:23:59.816Z,52.93
2022-09-12T06:26:28.726Z,51.90
2022-09-12T08:18:28.703Z,48.68
2022-09-12T08:20:56.763Z,48.77
2022-09-12T08:23:31.371Z,49.69
2022-09-12T08:25:58.224Z,50.99
2022-09-12T08:28:26.896Z,50.72
2022-09-12T08:30:56.083Z,49.59
2022-09-12T08:39:33.996Z,48.91
2022-09-12T08:45:00.468Z,48.34
2022-09-12T08:47:28.014Z,48.34
2022-09-12T08:49:55.078Z,48.07
2022-09-12T08:52:22.313Z,47.98
2022-09-12T08:54:49.355Z,49.12
2022-09-12T08:57:16.198Z,49.07
2022-09-12T08:59:42.841Z,49.14
2022-09-12T09:02:09.799Z,49.21
2022-09-12T09:04:40.098Z,48.65
2022-09-12T09:07:09.657Z,47.42
2022-09-12T09:09:39.229Z,47.00
2022-09-12T09:15:15.554Z,47.22
2022-09-12T09:17:46.524Z,47.05
2022-09-12T09:20:14.947Z,47.29
2022-09-12T09:22:41.640Z,47.22
2022-09-12T09:25:08.795Z,46.73
2022-09-12T09:27:41.031Z,47.01
2022-09-12T09:32:56.965Z,46.10
2022-09-12T09:35:24.432Z,46.35
2022-09-12T09:37:54.545Z,45.93
2022-09-12T09:40:25.342Z,45.37
2022-09-12T09:42:52.057Z,45.28
2022-09-12T09:45:21.625Z,46.77
2022-09-12T09:47:48.705Z,48.07
2022-09-12T09:50:15.336Z,47.59
2022-09-12T09:52:41.925Z,48.50
2022-09-12T09:55:08.742Z,47.79
2022-09-12T09:57:36.067Z,46.88
2022-09-12T10:00:02.776Z,46.71
2022-09-12T10:02:33.874Z,47.22
2022-09-12T10:05:00.744Z,45.80
2022-09-12T10:07:28.268Z,46.50
2022-09-12T10:09:57.308Z,48.21
2022-09-12T10:12:23.966Z,46.36
2022-09-12T10:14:51.434Z,46.43
2022-09-12T10:17:18.342Z,46.79
2022-09-12T10:19:55.963Z,46.23
2022-09-12T10:22:31.600Z,46.67
2022-09-12T10:25:00.117Z,45.83
2022-09-12T10:27:30.775Z,44.81
2022-09-12T10:29:58.069Z,45.77
2022-09-12T10:32:29.985Z,46.07
2022-09-12T10:34:57.809Z,45.07
2022-09-12T10:37:24.715Z,45.44
2022-09-12T10:39:58.856Z,46.80
2022-09-12T10:42:25.685Z,46.36
2022-09-12T10:44:54.866Z,45.50
2022-09-12T10:47:21.697Z,44.67
2022-09-12T10:49:50.703Z,45.56
2022-09-12T10:52:24.822Z,46.30
2022-09-12T10:55:01.540Z,45.15
2022-09-12T10:57:28.883Z,46.81
2022-09-12T10:59:56.136Z,46.29
2022-09-12T11:02:22.974Z,45.95
2022-09-12T11:04:49.637Z,44.83
2022-09-12T11:07:16.943Z,43.69
2022-09-12T11:09:45.576Z,43.56
2022-09-12T11:12:21.363Z,43.75
2022-09-12T11:14:48.312Z,43.49
2022-09-12T11:17:18.785Z,42.85
2022-09-12T11:19:47.040Z,43.35
2022-09-12T11:22:14.221Z,42.89
2022-09-12T11:24:42.950Z,42.48
2022-09-12T11:27:13.530Z,42.72
2022-09-12T11:29:41.000Z,41.83
2022-09-12T11:32:13.208Z,43.73
2022-09-12T11:34:40.725Z,42.76
2022-09-12T11:37:11.432Z,42.52
2022-09-12T11:39:41.260Z,40.58
2022-09-12T11:42:08.286Z,40.28
2022-09-12T11:44:40.030Z,41.39
2022-09-12T11:47:09.443Z,41.32
2022-09-12T11:52:17.155Z,38.39
2022-09-12T11:54:44.847Z,40.36
2022-09-12T11:57:11.851Z,41.16
2022-09-12T11:59:38.756Z,41.97
2022-09-12T12:02:05.509Z,41.83
2022-09-12T12:04:34.267Z,39.05
2022-09-12T12:07:01.070Z,39.51
2022-09-12T12:09:28.593Z,40.02
2022-09-12T12:11:55.331Z,38.76
2022-09-12T12:14:25.749Z,38.66
2022-09-12T12:16:54.506Z,37.99
2022-09-12T12:19:22.575Z,39.49
2022-09-12T12:21:51.707Z,39.04
2022-09-12T12:24:20.679Z,38.37
2022-09-12T12:26:47.849Z,38.54
2022-09-12T12:29:15.537Z,38.44
2022-09-12T12:31:42.389Z,37.74
2022-09-12T12:34:09.760Z,37.48
2022-09-12T12:36:40.229Z,36.78
2022-09-12T12:39:11.899Z,36.82
2022-09-12T12:41:38.573Z,36.31
2022-09-12T12:44:05.846Z,37.84
2022-09-12T12:46:33.381Z,37.80
2022-09-12T12:49:00.354Z,36.60
2022-09-12T12:51:35.386Z,36.51
2022-09-12T12:54:03.855Z,38.43
2022-09-12T12:56:32.016Z,37.63
2022-09-12T12:58:59.412Z,36.50
2022-09-12T13:01:26.249Z,35.95
2022-09-12T13:03:53.117Z,34.87
2022-09-12T13:06:20.432Z,35.29
2022-09-12T13:08:54.059Z,35.10
2022-09-12T13:11:21.522Z,34.00
2022-09-12T13:13:50.693Z,34.73
2022-09-12T13:16:17.292Z,33.66
2022-09-12T13:18:47.491Z,33.38
2022-09-12T13:21:14.474Z,33.36
2022-09-12T13:23:41.792Z,32.02
2022-09-12T13:26:11.326Z,30.76
2022-09-12T13:28:37.952Z,32.83
2022-09-12T13:31:05.538Z,33.06
2022-09-12T13:33:32.972Z,33.18
2022-09-12T13:35:59.573Z,32.12
2022-09-12T13:38:31.596Z,33.13
2022-09-12T13:41:00.261Z,31.87
2022-09-12T13:43:27.315Z,32.46
2022-09-12T13:45:54.303Z,31.89
2022-09-12T13:48:21.916Z,31.07
2022-09-12T13:50:49.229Z,31.42
2022-09-12T13:53:17.953Z,32.14
2022-09-12T13:55:54.350Z,32.06
2022-09-12T13:58:20.993Z,30.91
2022-09-12T14:00:48.345Z,29.64
2022-09-12T14:03:17.221Z,31.48
2022-09-12T14:08:14.561Z,31.14
2022-09-12T14:10:49.295Z,30.85
2022-09-12T14:13:17.353Z,31.53
2022-09-12T14:15:45.642Z,31.29
2022-09-12T14:18:12.621Z,31.35
2022-09-12T14:20:43.430Z,30.57
2022-09-12T14:23:10.418Z,30.82
2022-09-12T14:28:23.727Z,31.98
2022-09-12T14:30:50.815Z,32.51
2022-09-12T14:33:19.968Z,32.11
2022-09-12T14:35:49.052Z,31.76
2022-09-12T14:38:15.674Z,31.85
2022-09-12T14:40:42.671Z,32.71
2022-09-12T14:43:10.838Z,32.52
2022-09-12T14:45:39.624Z,33.76
2022-09-12T14:50:47.176Z,33.04
2022-09-12T14:53:14.073Z,33.67
2022-09-12T14:55:40.730Z,33.74
2022-09-12T14:58:11.932Z,32.47
2022-09-12T15:00:38.937Z,31.89
2022-09-12T15:03:07.502Z,31.48
2022-09-12T15:05:37.982Z,32.82
2022-09-12T15:10:47.925Z,33.59
2022-09-12T15:13:15.470Z,34.34
2022-09-12T15:18:26.952Z,33.81
2022-09-12T15:20:54.693Z,34.85
2022-09-12T15:23:23.845Z,35.41
2022-09-12T15:25:51.404Z,34.95
2022-09-12T15:28:20.187Z,35.74
2022-09-12T15:30:46.756Z,35.56
2022-09-12T15:33:13.777Z,34.92
2022-09-12T15:35:42.215Z,35.12
2022-09-12T15:38:09.086Z,35.20
2022-09-12T15:40:37.684Z,34.59
2022-09-12T15:43:04.506Z,34.90
2022-09-12T15:45:31.557Z,34.10
2022-09-12T15:48:01.905Z,35.38
2022-09-12T15:50:32.228Z,35.91
2022-09-12T15:53:02.294Z,35.67
2022-09-12T15:55:28.963Z,34.63
2022-09-12T15:57:55.774Z,34.54
2022-09-12T16:00:26.652Z,34.41
2022-09-12T16:02:53.658Z,33.91
2022-09-12T16:05:20.982Z,34.21
2022-09-12T16:07:47.731Z,34.63
2022-09-12T16:10:14.387Z,34.36
2022-09-12T16:12:45.286Z,34.02
2022-09-12T16:15:13.672Z,34.16
2022-09-12T16:17:47.649Z,35.09
2022-09-12T16:20:16.845Z,34.93
2022-09-12T16:22:43.612Z,34.17
2022-09-12T16:25:10.781Z,34.64
2022-09-12T16:27:39.048Z,34.72
2022-09-12T16:30:06.618Z,35.09
2022-09-12T16:32:34.066Z,36.12
2022-09-12T16:35:01.500Z,36.82
2022-09-12T16:37:30.433Z,36.62
2022-09-12T16:39:57.103Z,37.40
2022-09-12T16:42:30.526Z,36.94
2022-09-12T16:44:57.942Z,36.81
2022-09-12T16:47:25.588Z,36.76
2022-09-12T16:49:53.872Z,36.64
2022-09-12T16:52:21.399Z,36.38
2022-09-12T16:57:53.273Z,37.13
2022-09-12T17:00:20.128Z,36.55
2022-09-12T17:02:49.598Z,36.40
2022-09-12T17:05:16.728Z,35.85
2022-09-12T17:07:43.514Z,36.61
2022-09-12T17:10:23.222Z,36.65
2022-09-12T17:12:58.991Z,36.86
2022-09-12T17:15:27.301Z,38.48
2022-09-12T17:20:38.076Z,42.43
2022-09-12T17:23:09.524Z,42.23
2022-09-12T17:25:38.136Z,41.22
2022-09-12T17:28:14.274Z,41.51
2022-09-12T17:30:50.925Z,42.66
2022-09-12T17:33:27.183Z,43.00
2022-09-12T17:35:55.973Z,41.02
2022-09-12T17:38:25.236Z,40.18
2022-09-12T17:43:21.662Z,42.00
2022-09-12T17:45:48.337Z,42.35
2022-09-12T17:48:15.763Z,42.46
2022-09-12T17:50:42.375Z,41.47
2022-09-12T17:53:17.433Z,40.83
2022-09-12T17:55:45.985Z,41.87
2022-09-12T17:58:12.957Z,42.57
2022-09-12T18:00:40.258Z,42.22
2022-09-12T18:03:12.167Z,40.85
2022-09-12T18:05:42.563Z,39.98
2022-09-12T18:08:10.194Z,40.52
2022-09-12T18:10:40.362Z,41.41
2022-09-12T18:13:09.501Z,42.65
2022-09-12T18:15:36.757Z,42.36
2022-09-12T18:18:03.699Z,40.97
2022-09-12T18:23:18.119Z,40.05
2022-09-12T18:25:47.201Z,41.18
2022-09-12T18:28:13.998Z,41.69
2022-09-12T18:30:40.524Z,41.79
2022-09-12T18:33:06.956Z,41.93
2022-09-12T18:35:33.482Z,42.01
2022-09-12T18:38:00.117Z,42.49
2022-09-12T18:40:26.796Z,42.49
2022-09-12T18:42:53.935Z,42.82
2022-09-12T18:45:20.691Z,43.25
2022-09-12T18:47:48.175Z,42.97
2022-09-12T18:50:15.178Z,43.05
2022-09-12T18:52:41.720Z,42.96
2022-09-12T18:55:08.550Z,43.51
2022-09-12T18:57:35.353Z,43.55
2022-09-12T19:00:07.258Z,43.12
2022-09-12T19:02:35.968Z,43.17
2022-09-12T19:05:10.739Z,44.23
2022-09-12T19:07:38.093Z,43.78
2022-09-12T19:10:04.969Z,43.79
2022-09-12T19:12:31.803Z,44.21
2022-09-12T19:14:58.608Z,44.42
2022-09-12T19:17:28.223Z,45.43
2022-09-12T19:19:57.271Z,45.30
2022-09-12T19:22:31.540Z,45.26
2022-09-12T19:24:58.694Z,45.44
2022-09-12T19:27:25.449Z,46.11
2022-09-12T19:29:52.165Z,46.72
2022-09-12T19:32:19.710Z,46.30
2022-09-12T19:34:46.975Z,45.54
2022-09-12T19:37:13.388Z,45.09
2022-09-12T19:39:40.677Z,44.86
2022-09-12T19:42:14.470Z,44.54
2022-09-12T19:44:40.992Z,45.21
2022-09-12T19:47:08.211Z,45.28
2022-09-12T19:49:34.695Z,44.93
2022-09-12T19:52:01.672Z,46.52
2022-09-12T19:54:28.101Z,46.56
2022-09-12T19:56:57.101Z,46.13
2022-09-12T19:59:23.820Z,45.77
2022-09-12T20:01:50.581Z,45.62
2022-09-12T20:04:17.158Z,45.03
2022-09-12T20:06:43.674Z,47.08
2022-09-12T20:09:10.398Z,45.90
2022-09-12T20:11:37.015Z,46.77
2022-09-12T20:14:03.526Z,46.47
2022-09-12T20:16:30.337Z,47.15
2022-09-12T20:18:57.041Z,46.47
2022-09-12T20:21:23.552Z,46.27
2022-09-12T20:23:50.085Z,46.16
2022-09-12T20:26:16.586Z,46.11
2022-09-12T20:28:43.353Z,46.76
2022-09-12T20:31:12.002Z,46.60
2022-09-12T20:33:38.734Z,46.56
2022-09-12T20:36:05.508Z,45.58
2022-09-12T20:38:32.770Z,45.13
2022-09-12T20:40:59.292Z,45.64
2022-09-12T20:43:26.089Z,46.98
2022-09-12T20:45:52.587Z,49.16
2022-09-12T20:48:19.009Z,50.08
2022-09-12T20:50:45.666Z,48.33
2022-09-12T21:05:54.526Z,49.53
2022-09-12T21:08:21.737Z,49.45
2022-09-12T21:10:50.488Z,50.79
2022-09-12T21:13:19.548Z,51.44
2022-09-12T21:15:48.393Z,50.72
2022-09-12T21:18:16.914Z,51.78
2022-09-12T21:20:44.364Z,52.61
2022-09-12T21:23:12.153Z,53.47
2022-09-12T21:25:52.232Z,53.05
2022-09-12T21:28:19.838Z,52.75
2022-09-12T21:30:47.282Z,52.68
2022-09-12T21:33:16.542Z,52.17
2022-09-12T21:35:43.156Z,51.72
2022-09-12T21:38:10.569Z,51.86
2022-09-12T21:40:39.087Z,50.24
2022-09-12T21:43:12.319Z,50.46
2022-09-12T21:45:47.142Z,50.35
2022-09-12T21:48:15.397Z,49.31
2022-09-12T21:50:42.295Z,48.80
2022-09-12T21:53:20.100Z,50.11
2022-09-12T21:55:47.043Z,49.49
2022-09-12T21:58:14.699Z,49.57
2022-09-12T22:00:49.192Z,49.69
2022-09-12T22:03:16.381Z,50.02
2022-09-12T22:05:46.941Z,49.38
2022-09-12T22:08:15.515Z,49.82
2022-09-12T22:10:42.260Z,50.74
2022-09-12T22:13:09.154Z,50.14
2022-09-12T22:15:41.351Z,49.63
2022-09-12T22:18:09.917Z,49.07
2022-09-12T22:20:40.427Z,49.14
2022-09-12T22:23:08.912Z,50.00
2022-09-12T22:28:16.161Z,51.29
2022-09-12T22:30:45.217Z,49.83
2022-09-12T22:33:13.701Z,49.44
2022-09-12T22:35:40.497Z,49.06
2022-09-12T22:38:07.901Z,48.99
2022-09-12T22:40:34.767Z,49.57
2022-09-12T22:43:02.313Z,50.04
2022-09-12T22:45:31.594Z,50.88
2022-09-12T22:48:00.740Z,51.60
2022-09-12T22:53:00.570Z,50.79
2022-09-12T22:55:35.871Z,50.52
2022-09-12T22:58:02.919Z,49.70
2022-09-12T23:00:31.957Z,50.74
2022-09-12T23:02:58.964Z,51.30
2022-09-12T23:05:27.450Z,51.37
2022-09-12T23:07:54.413Z,51.09
2022-09-12T23:10:21.215Z,50.67
2022-09-12T23:12:52.609Z,51.66
2022-09-12T23:15:20.958Z,52.06
2022-09-12T23:17:48.345Z,51.61
2022-09-12T23:20:15.966Z,51.26
2022-09-12T23:22:42.848Z,50.22
2022-09-12T23:25:09.662Z,51.29
2022-09-12T23:27:37.015Z,53.63
2022-09-12T23:30:07.571Z,53.90
2022-09-12T23:32:35.307Z,54.10
2022-09-12T23:35:09.422Z,52.13
2022-09-12T23:37:36.126Z,53.19
2022-09-12T23:40:03.301Z,53.74
2022-09-12T23:42:30.676Z,53.89
2022-09-12T23:44:57.411Z,52.90
2022-09-12T23:47:24.495Z,53.75
2022-09-12T23:49:52.922Z,54.36
2022-09-12T23:52:20.065Z,55.37
2022-09-12T23:54:47.543Z,54.62
2022-09-12T23:57:18.825Z,54.81
2022-09-12T23:59:51.516Z,53.25
